Terminal Aerodrome Forecast
Issued by NWS

Home | Current Version | Previous Version | Text Only | Print | Product List | Glossary On
Versions: 1 2 3 4 5 6 7 8 9 10 11 12 13 14 15 16 17 18 19 20 21 22 23 24 25
000
FTUS46 KSGX 251700
TAFSAN
TAF
KSAN 251721Z 2518/2624 30005KT P6SM SCT012 BKN100
     FM252000 29010KT P6SM SCT015 SCT070
     FM260200 VRB04KT P6SM SCT015
     FM260500 VRB03KT P6SM BKN015
     FM260900 VRB04KT P6SM OVC018
     FM261900 28010KT P6SM SCT025=

USA.gov is the U.S. government's official web portal to all federal, state and local government web resources and services.